sensor_id;sensor_type;location;lat;lon;timestamp;P1;durP1;ratioP1;P2;durP2;ratioP2
76310;SDS011;65120;59.304;18.294;2023-05-14T00:01:53;4.07;;;3.33;;
76310;SDS011;65120;59.304;18.294;2023-05-14T00:04:20;5.28;;;3.75;;
76310;SDS011;65120;59.304;18.294;2023-05-14T00:06:48;5.53;;;3.83;;
76310;SDS011;65120;59.304;18.294;2023-05-14T00:09:15;5.03;;;3.58;;
76310;SDS011;65120;59.304;18.294;2023-05-14T00:11:42;5.55;;;3.50;;
76310;SDS011;65120;59.304;18.294;2023-05-14T00:14:08;4.22;;;3.60;;
76310;SDS011;65120;59.304;18.294;2023-05-14T00:16:35;8.50;;;3.75;;
76310;SDS011;65120;59.304;18.294;2023-05-14T00:19:04;4.28;;;3.88;;
76310;SDS011;65120;59.304;18.294;2023-05-14T00:21:30;5.68;;;3.25;;
76310;SDS011;65120;59.304;18.294;2023-05-14T00:23:57;3.80;;;3.50;;
76310;SDS011;65120;59.304;18.294;2023-05-14T00:26:24;3.90;;;3.22;;
76310;SDS011;65120;59.304;18.294;2023-05-14T00:28:51;4.47;;;3.28;;
76310;SDS011;65120;59.304;18.294;2023-05-14T00:31:18;9.52;;;3.53;;
76310;SDS011;65120;59.304;18.294;2023-05-14T00:33:45;4.15;;;3.25;;
76310;SDS011;65120;59.304;18.294;2023-05-14T00:36:13;6.00;;;3.45;;
76310;SDS011;65120;59.304;18.294;2023-05-14T00:38:40;5.82;;;3.90;;
76310;SDS011;65120;59.304;18.294;2023-05-14T00:41:07;6.57;;;3.60;;
76310;SDS011;65120;59.304;18.294;2023-05-14T00:43:34;4.00;;;3.63;;
76310;SDS011;65120;59.304;18.294;2023-05-14T00:46:00;6.15;;;4.15;;
76310;SDS011;65120;59.304;18.294;2023-05-14T00:48:28;3.92;;;3.47;;
76310;SDS011;65120;59.304;18.294;2023-05-14T00:50:55;3.40;;;3.10;;
76310;SDS011;65120;59.304;18.294;2023-05-14T00:53:23;11.25;;;5.18;;
76310;SDS011;65120;59.304;18.294;2023-05-14T00:55:50;6.38;;;3.83;;
76310;SDS011;65120;59.304;18.294;2023-05-14T00:58:17;8.85;;;4.20;;
76310;SDS011;65120;59.304;18.294;2023-05-14T01:00:44;9.57;;;3.97;;
76310;SDS011;65120;59.304;18.294;2023-05-14T01:03:11;4.88;;;3.35;;
76310;SDS011;65120;59.304;18.294;2023-05-14T01:05:40;6.18;;;3.75;;
76310;SDS011;65120;59.304;18.294;2023-05-14T01:08:12;5.80;;;3.50;;
76310;SDS011;65120;59.304;18.294;2023-05-14T01:10:50;5.15;;;3.58;;
76310;SDS011;65120;59.304;18.294;2023-05-14T01:13:23;6.18;;;3.67;;
76310;SDS011;65120;59.304;18.294;2023-05-14T01:15:54;6.18;;;3.85;;
76310;SDS011;65120;59.304;18.294;2023-05-14T01:18:22;7.53;;;3.78;;
76310;SDS011;65120;59.304;18.294;2023-05-14T01:20:50;5.72;;;4.43;;
76310;SDS011;65120;59.304;18.294;2023-05-14T01:23:18;8.48;;;4.88;;
76310;SDS011;65120;59.304;18.294;2023-05-14T01:25:45;6.43;;;3.88;;
76310;SDS011;65120;59.304;18.294;2023-05-14T01:28:14;4.63;;;3.28;;
76310;SDS011;65120;59.304;18.294;2023-05-14T01:30:47;7.35;;;4.40;;
76310;SDS011;65120;59.304;18.294;2023-05-14T01:33:17;4.28;;;3.88;;
76310;SDS011;65120;59.304;18.294;2023-05-14T01:35:44;4.53;;;3.85;;
76310;SDS011;65120;59.304;18.294;2023-05-14T01:38:13;8.38;;;4.07;;
76310;SDS011;65120;59.304;18.294;2023-05-14T01:40:44;5.70;;;4.07;;
76310;SDS011;65120;59.304;18.294;2023-05-14T01:43:12;4.63;;;3.97;;
76310;SDS011;65120;59.304;18.294;2023-05-14T01:45:40;7.85;;;3.70;;
76310;SDS011;65120;59.304;18.294;2023-05-14T01:48:07;7.50;;;4.40;;
76310;SDS011;65120;59.304;18.294;2023-05-14T01:50:34;8.90;;;4.40;;
76310;SDS011;65120;59.304;18.294;2023-05-14T01:53:01;9.35;;;4.38;;
76310;SDS011;65120;59.304;18.294;2023-05-14T01:55:28;6.32;;;4.43;;
76310;SDS011;65120;59.304;18.294;2023-05-14T01:57:56;6.60;;;4.40;;
76310;SDS011;65120;59.304;18.294;2023-05-14T02:00:23;4.97;;;3.60;;
76310;SDS011;65120;59.304;18.294;2023-05-14T02:02:50;8.07;;;4.13;;
76310;SDS011;65120;59.304;18.294;2023-05-14T02:05:17;5.18;;;3.55;;
76310;SDS011;65120;59.304;18.294;2023-05-14T02:07:45;6.35;;;3.70;;
76310;SDS011;65120;59.304;18.294;2023-05-14T02:10:12;7.63;;;4.28;;
76310;SDS011;65120;59.304;18.294;2023-05-14T02:12:38;8.68;;;3.80;;
76310;SDS011;65120;59.304;18.294;2023-05-14T02:15:07;12.77;;;5.60;;
76310;SDS011;65120;59.304;18.294;2023-05-14T02:17:35;7.72;;;3.63;;
76310;SDS011;65120;59.304;18.294;2023-05-14T02:20:02;4.40;;;3.90;;
76310;SDS011;65120;59.304;18.294;2023-05-14T02:22:29;9.38;;;3.70;;
76310;SDS011;65120;59.304;18.294;2023-05-14T02:24:56;6.47;;;4.20;;
76310;SDS011;65120;59.304;18.294;2023-05-14T02:27:23;6.68;;;4.28;;
76310;SDS011;65120;59.304;18.294;2023-05-14T02:29:50;3.85;;;3.42;;
76310;SDS011;65120;59.304;18.294;2023-05-14T02:32:18;9.35;;;4.10;;
76310;SDS011;65120;59.304;18.294;2023-05-14T02:34:45;5.63;;;4.38;;
76310;SDS011;65120;59.304;18.294;2023-05-14T02:37:12;4.68;;;3.88;;
76310;SDS011;65120;59.304;18.294;2023-05-14T02:39:39;6.43;;;4.00;;
76310;SDS011;65120;59.304;18.294;2023-05-14T02:42:06;8.10;;;4.35;;
76310;SDS011;65120;59.304;18.294;2023-05-14T02:44:32;6.43;;;4.15;;
76310;SDS011;65120;59.304;18.294;2023-05-14T02:46:59;5.68;;;3.70;;
76310;SDS011;65120;59.304;18.294;2023-05-14T02:49:27;6.15;;;3.80;;
76310;SDS011;65120;59.304;18.294;2023-05-14T02:51:54;8.90;;;3.97;;
76310;SDS011;65120;59.304;18.294;2023-05-14T02:54:21;6.82;;;3.97;;
76310;SDS011;65120;59.304;18.294;2023-05-14T02:56:48;7.45;;;3.65;;
76310;SDS011;65120;59.304;18.294;2023-05-14T02:59:15;5.18;;;3.85;;
76310;SDS011;65120;59.304;18.294;2023-05-14T03:01:42;5.00;;;3.78;;
76310;SDS011;65120;59.304;18.294;2023-05-14T03:04:09;5.78;;;3.97;;
76310;SDS011;65120;59.304;18.294;2023-05-14T03:06:37;6.47;;;4.85;;
76310;SDS011;65120;59.304;18.294;2023-05-14T03:09:04;7.35;;;3.90;;
76310;SDS011;65120;59.304;18.294;2023-05-14T03:11:31;4.38;;;3.92;;
76310;SDS011;65120;59.304;18.294;2023-05-14T03:13:58;7.20;;;4.38;;
76310;SDS011;65120;59.304;18.294;2023-05-14T03:16:25;5.60;;;3.83;;
76310;SDS011;65120;59.304;18.294;2023-05-14T03:18:52;7.68;;;3.80;;
76310;SDS011;65120;59.304;18.294;2023-05-14T03:21:19;6.10;;;4.35;;
76310;SDS011;65120;59.304;18.294;2023-05-14T03:23:47;7.68;;;4.68;;
76310;SDS011;65120;59.304;18.294;2023-05-14T03:26:14;4.65;;;4.25;;
76310;SDS011;65120;59.304;18.294;2023-05-14T03:28:41;4.65;;;4.07;;
76310;SDS011;65120;59.304;18.294;2023-05-14T03:31:08;5.63;;;4.53;;
76310;SDS011;65120;59.304;18.294;2023-05-14T03:33:35;4.90;;;4.32;;
76310;SDS011;65120;59.304;18.294;2023-05-14T03:36:02;5.57;;;4.47;;
76310;SDS011;65120;59.304;18.294;2023-05-14T03:38:29;8.70;;;5.00;;
76310;SDS011;65120;59.304;18.294;2023-05-14T03:40:57;8.48;;;4.88;;
76310;SDS011;65120;59.304;18.294;2023-05-14T03:43:24;5.80;;;4.45;;
76310;SDS011;65120;59.304;18.294;2023-05-14T03:45:51;4.30;;;3.90;;
76310;SDS011;65120;59.304;18.294;2023-05-14T03:48:18;4.82;;;4.32;;
76310;SDS011;65120;59.304;18.294;2023-05-14T03:50:45;5.05;;;4.20;;
76310;SDS011;65120;59.304;18.294;2023-05-14T03:53:12;6.95;;;4.28;;
76310;SDS011;65120;59.304;18.294;2023-05-14T03:55:39;9.85;;;4.70;;
76310;SDS011;65120;59.304;18.294;2023-05-14T03:58:07;6.45;;;4.03;;
76310;SDS011;65120;59.304;18.294;2023-05-14T04:00:38;5.18;;;4.50;;
76310;SDS011;65120;59.304;18.294;2023-05-14T04:03:05;5.13;;;4.32;;
76310;SDS011;65120;59.304;18.294;2023-05-14T04:05:32;8.80;;;4.50;;
76310;SDS011;65120;59.304;18.294;2023-05-14T04:07:59;6.22;;;5.32;;
76310;SDS011;65120;59.304;18.294;2023-05-14T04:10:26;5.38;;;4.82;;
76310;SDS011;65120;59.304;18.294;2023-05-14T04:12:53;5.93;;;3.95;;
76310;SDS011;65120;59.304;18.294;2023-05-14T04:15:21;5.15;;;4.15;;
76310;SDS011;65120;59.304;18.294;2023-05-14T04:17:48;7.15;;;5.20;;
76310;SDS011;65120;59.304;18.294;2023-05-14T04:20:15;9.30;;;5.07;;
76310;SDS011;65120;59.304;18.294;2023-05-14T04:22:42;6.00;;;4.18;;
76310;SDS011;65120;59.304;18.294;2023-05-14T04:25:09;7.53;;;5.55;;
76310;SDS011;65120;59.304;18.294;2023-05-14T04:27:36;7.82;;;4.90;;
76310;SDS011;65120;59.304;18.294;2023-05-14T04:30:03;5.03;;;4.25;;
76310;SDS011;65120;59.304;18.294;2023-05-14T04:32:33;5.25;;;4.63;;
76310;SDS011;65120;59.304;18.294;2023-05-14T04:35:00;6.95;;;4.90;;
76310;SDS011;65120;59.304;18.294;2023-05-14T04:37:28;6.43;;;4.28;;
76310;SDS011;65120;59.304;18.294;2023-05-14T04:39:55;5.63;;;4.35;;
76310;SDS011;65120;59.304;18.294;2023-05-14T04:42:22;4.25;;;3.78;;
76310;SDS011;65120;59.304;18.294;2023-05-14T04:44:49;6.85;;;4.18;;
76310;SDS011;65120;59.304;18.294;2023-05-14T04:47:16;4.40;;;3.25;;
76310;SDS011;65120;59.304;18.294;2023-05-14T04:49:45;4.85;;;3.55;;
76310;SDS011;65120;59.304;18.294;2023-05-14T04:52:12;7.43;;;3.17;;
76310;SDS011;65120;59.304;18.294;2023-05-14T04:54:39;8.75;;;3.65;;
76310;SDS011;65120;59.304;18.294;2023-05-14T04:57:05;6.15;;;3.58;;
76310;SDS011;65120;59.304;18.294;2023-05-14T04:59:32;6.07;;;3.35;;
76310;SDS011;65120;59.304;18.294;2023-05-14T05:01:59;9.18;;;3.60;;
76310;SDS011;65120;59.304;18.294;2023-05-14T05:04:26;4.00;;;2.97;;
76310;SDS011;65120;59.304;18.294;2023-05-14T05:06:54;5.80;;;3.42;;
76310;SDS011;65120;59.304;18.294;2023-05-14T05:09:21;4.13;;;3.15;;
76310;SDS011;65120;59.304;18.294;2023-05-14T05:11:48;6.38;;;2.28;;
76310;SDS011;65120;59.304;18.294;2023-05-14T05:14:15;5.72;;;2.92;;
76310;SDS011;65120;59.304;18.294;2023-05-14T05:16:42;5.05;;;2.78;;
76310;SDS011;65120;59.304;18.294;2023-05-14T05:19:09;5.47;;;3.60;;
76310;SDS011;65120;59.304;18.294;2023-05-14T05:21:36;5.18;;;2.75;;
76310;SDS011;65120;59.304;18.294;2023-05-14T05:24:06;3.42;;;2.78;;
76310;SDS011;65120;59.304;18.294;2023-05-14T05:26:33;4.75;;;2.97;;
76310;SDS011;65120;59.304;18.294;2023-05-14T05:29:01;4.47;;;2.33;;
76310;SDS011;65120;59.304;18.294;2023-05-14T05:31:29;3.35;;;2.58;;
76310;SDS011;65120;59.304;18.294;2023-05-14T05:33:56;3.65;;;2.05;;
76310;SDS011;65120;59.304;18.294;2023-05-14T05:36:24;3.60;;;2.17;;
76310;SDS011;65120;59.304;18.294;2023-05-14T05:38:51;3.38;;;2.65;;
76310;SDS011;65120;59.304;18.294;2023-05-14T05:41:19;4.53;;;2.55;;
76310;SDS011;65120;59.304;18.294;2023-05-14T05:43:46;4.65;;;2.28;;
76310;SDS011;65120;59.304;18.294;2023-05-14T05:46:13;5.65;;;2.70;;
76310;SDS011;65120;59.304;18.294;2023-05-14T05:48:40;5.07;;;2.10;;
76310;SDS011;65120;59.304;18.294;2023-05-14T05:51:07;5.57;;;1.70;;
76310;SDS011;65120;59.304;18.294;2023-05-14T05:53:34;5.50;;;2.22;;
76310;SDS011;65120;59.304;18.294;2023-05-14T05:56:00;4.22;;;2.20;;
76310;SDS011;65120;59.304;18.294;2023-05-14T05:58:29;3.35;;;2.25;;
76310;SDS011;65120;59.304;18.294;2023-05-14T06:00:55;5.32;;;2.20;;
76310;SDS011;65120;59.304;18.294;2023-05-14T06:03:22;10.05;;;2.13;;
76310;SDS011;65120;59.304;18.294;2023-05-14T06:05:49;3.50;;;2.13;;
76310;SDS011;65120;59.304;18.294;2023-05-14T06:08:16;5.07;;;2.35;;
76310;SDS011;65120;59.304;18.294;2023-05-14T06:10:43;4.07;;;2.40;;
76310;SDS011;65120;59.304;18.294;2023-05-14T06:13:11;3.88;;;2.00;;
76310;SDS011;65120;59.304;18.294;2023-05-14T06:15:39;3.80;;;2.72;;
76310;SDS011;65120;59.304;18.294;2023-05-14T06:18:06;2.50;;;1.70;;
76310;SDS011;65120;59.304;18.294;2023-05-14T06:20:32;6.75;;;2.55;;
76310;SDS011;65120;59.304;18.294;2023-05-14T06:22:59;4.60;;;2.40;;
76310;SDS011;65120;59.304;18.294;2023-05-14T06:25:26;4.75;;;2.47;;
76310;SDS011;65120;59.304;18.294;2023-05-14T06:27:53;3.85;;;2.38;;
76310;SDS011;65120;59.304;18.294;2023-05-14T06:30:20;5.38;;;2.45;;
76310;SDS011;65120;59.304;18.294;2023-05-14T06:32:48;3.90;;;2.65;;
76310;SDS011;65120;59.304;18.294;2023-05-14T06:35:16;3.58;;;2.75;;
76310;SDS011;65120;59.304;18.294;2023-05-14T06:37:42;6.97;;;3.60;;
76310;SDS011;65120;59.304;18.294;2023-05-14T06:40:10;5.53;;;2.58;;
76310;SDS011;65120;59.304;18.294;2023-05-14T06:42:39;2.40;;;2.20;;
76310;SDS011;65120;59.304;18.294;2023-05-14T06:45:06;4.53;;;1.92;;
76310;SDS011;65120;59.304;18.294;2023-05-14T06:47:33;3.70;;;2.22;;
76310;SDS011;65120;59.304;18.294;2023-05-14T06:50:02;4.15;;;2.38;;
76310;SDS011;65120;59.304;18.294;2023-05-14T06:52:29;5.35;;;2.28;;
76310;SDS011;65120;59.304;18.294;2023-05-14T06:54:56;3.50;;;2.58;;
76310;SDS011;65120;59.304;18.294;2023-05-14T06:57:23;7.22;;;2.20;;
76310;SDS011;65120;59.304;18.294;2023-05-14T06:59:50;4.65;;;2.03;;
76310;SDS011;65120;59.304;18.294;2023-05-14T07:02:17;3.90;;;2.10;;
76310;SDS011;65120;59.304;18.294;2023-05-14T07:04:43;3.45;;;2.03;;
76310;SDS011;65120;59.304;18.294;2023-05-14T07:07:12;2.35;;;2.10;;
76310;SDS011;65120;59.304;18.294;2023-05-14T07:09:42;10.85;;;2.50;;
76310;SDS011;65120;59.304;18.294;2023-05-14T07:12:09;4.90;;;2.50;;
76310;SDS011;65120;59.304;18.294;2023-05-14T07:14:36;4.25;;;2.42;;
76310;SDS011;65120;59.304;18.294;2023-05-14T07:17:03;3.20;;;2.17;;
76310;SDS011;65120;59.304;18.294;2023-05-14T07:19:30;3.03;;;1.83;;
76310;SDS011;65120;59.304;18.294;2023-05-14T07:21:56;4.18;;;2.05;;
76310;SDS011;65120;59.304;18.294;2023-05-14T07:24:25;3.70;;;1.80;;
76310;SDS011;65120;59.304;18.294;2023-05-14T07:26:52;8.93;;;2.22;;
76310;SDS011;65120;59.304;18.294;2023-05-14T07:29:21;2.22;;;1.88;;
76310;SDS011;65120;59.304;18.294;2023-05-14T07:31:49;2.28;;;1.98;;
76310;SDS011;65120;59.304;18.294;2023-05-14T07:34:16;3.38;;;2.05;;
76310;SDS011;65120;59.304;18.294;2023-05-14T07:36:43;5.88;;;2.10;;
76310;SDS011;65120;59.304;18.294;2023-05-14T07:39:10;2.88;;;2.03;;
76310;SDS011;65120;59.304;18.294;2023-05-14T07:41:39;3.70;;;1.80;;
76310;SDS011;65120;59.304;18.294;2023-05-14T07:44:05;3.00;;;1.60;;
76310;SDS011;65120;59.304;18.294;2023-05-14T07:46:32;4.07;;;2.40;;
76310;SDS011;65120;59.304;18.294;2023-05-14T07:48:59;5.78;;;1.80;;
76310;SDS011;65120;59.304;18.294;2023-05-14T07:51:26;2.67;;;1.42;;
76310;SDS011;65120;59.304;18.294;2023-05-14T07:53:53;5.93;;;1.83;;
76310;SDS011;65120;59.304;18.294;2023-05-14T07:56:20;1.50;;;1.33;;
76310;SDS011;65120;59.304;18.294;2023-05-14T07:58:49;2.53;;;1.77;;
76310;SDS011;65120;59.304;18.294;2023-05-14T08:01:15;3.92;;;1.77;;
76310;SDS011;65120;59.304;18.294;2023-05-14T08:03:42;6.28;;;1.92;;
76310;SDS011;65120;59.304;18.294;2023-05-14T08:06:09;5.35;;;1.50;;
76310;SDS011;65120;59.304;18.294;2023-05-14T08:08:36;3.38;;;1.80;;
76310;SDS011;65120;59.304;18.294;2023-05-14T08:11:03;4.93;;;1.15;;
76310;SDS011;65120;59.304;18.294;2023-05-14T08:13:30;6.15;;;1.85;;
76310;SDS011;65120;59.304;18.294;2023-05-14T08:15:58;6.63;;;1.65;;
76310;SDS011;65120;59.304;18.294;2023-05-14T08:18:25;5.85;;;1.98;;
76310;SDS011;65120;59.304;18.294;2023-05-14T08:20:52;2.00;;;1.40;;
76310;SDS011;65120;59.304;18.294;2023-05-14T08:23:19;3.22;;;2.05;;
76310;SDS011;65120;59.304;18.294;2023-05-14T08:25:46;4.85;;;1.30;;
76310;SDS011;65120;59.304;18.294;2023-05-14T08:28:13;5.03;;;1.90;;
76310;SDS011;65120;59.304;18.294;2023-05-14T08:30:40;3.30;;;1.42;;
76310;SDS011;65120;59.304;18.294;2023-05-14T08:33:08;7.05;;;1.65;;
76310;SDS011;65120;59.304;18.294;2023-05-14T08:35:35;5.30;;;1.80;;
76310;SDS011;65120;59.304;18.294;2023-05-14T08:38:02;3.10;;;1.42;;
76310;SDS011;65120;59.304;18.294;2023-05-14T08:40:29;5.32;;;1.70;;
76310;SDS011;65120;59.304;18.294;2023-05-14T08:42:56;6.10;;;1.38;;
76310;SDS011;65120;59.304;18.294;2023-05-14T08:45:26;4.40;;;1.60;;
76310;SDS011;65120;59.304;18.294;2023-05-14T08:47:55;3.65;;;1.63;;
76310;SDS011;65120;59.304;18.294;2023-05-14T08:50:26;3.25;;;1.60;;
76310;SDS011;65120;59.304;18.294;2023-05-14T08:52:55;5.78;;;1.70;;
76310;SDS011;65120;59.304;18.294;2023-05-14T08:55:22;5.35;;;1.90;;
76310;SDS011;65120;59.304;18.294;2023-05-14T08:57:50;3.03;;;1.30;;
76310;SDS011;65120;59.304;18.294;2023-05-14T09:00:17;5.25;;;1.98;;
76310;SDS011;65120;59.304;18.294;2023-05-14T09:02:44;3.00;;;1.38;;
76310;SDS011;65120;59.304;18.294;2023-05-14T09:05:11;4.15;;;1.00;;
76310;SDS011;65120;59.304;18.294;2023-05-14T09:07:41;4.70;;;1.50;;
76310;SDS011;65120;59.304;18.294;2023-05-14T09:10:08;5.78;;;1.20;;
76310;SDS011;65120;59.304;18.294;2023-05-14T09:12:35;3.67;;;1.05;;
76310;SDS011;65120;59.304;18.294;2023-05-14T09:15:02;7.93;;;1.35;;
76310;SDS011;65120;59.304;18.294;2023-05-14T09:17:30;2.20;;;1.42;;
76310;SDS011;65120;59.304;18.294;2023-05-14T09:19:58;3.50;;;1.40;;
76310;SDS011;65120;59.304;18.294;2023-05-14T09:22:27;3.67;;;1.30;;
76310;SDS011;65120;59.304;18.294;2023-05-14T09:25:05;8.98;;;1.40;;
76310;SDS011;65120;59.304;18.294;2023-05-14T09:27:33;3.22;;;1.48;;
76310;SDS011;65120;59.304;18.294;2023-05-14T09:30:05;4.28;;;1.50;;
76310;SDS011;65120;59.304;18.294;2023-05-14T09:32:36;12.63;;;2.05;;
76310;SDS011;65120;59.304;18.294;2023-05-14T09:35:11;3.15;;;1.33;;
76310;SDS011;65120;59.304;18.294;2023-05-14T09:37:41;1.73;;;1.25;;
76310;SDS011;65120;59.304;18.294;2023-05-14T09:40:11;2.63;;;1.40;;
76310;SDS011;65120;59.304;18.294;2023-05-14T09:42:38;1.58;;;1.17;;
76310;SDS011;65120;59.304;18.294;2023-05-14T09:45:06;2.00;;;1.38;;
76310;SDS011;65120;59.304;18.294;2023-05-14T09:47:33;1.23;;;1.13;;
76310;SDS011;65120;59.304;18.294;2023-05-14T09:50:00;1.70;;;1.30;;
76310;SDS011;65120;59.304;18.294;2023-05-14T09:52:27;6.82;;;1.55;;
76310;SDS011;65120;59.304;18.294;2023-05-14T09:54:54;2.65;;;1.55;;
76310;SDS011;65120;59.304;18.294;2023-05-14T09:57:22;1.95;;;1.48;;
76310;SDS011;65120;59.304;18.294;2023-05-14T09:59:51;5.45;;;1.63;;
76310;SDS011;65120;59.304;18.294;2023-05-14T10:02:20;1.52;;;1.20;;
76310;SDS011;65120;59.304;18.294;2023-05-14T10:04:49;2.05;;;1.80;;
76310;SDS011;65120;59.304;18.294;2023-05-14T10:07:20;2.08;;;1.35;;
76310;SDS011;65120;59.304;18.294;2023-05-14T10:09:53;4.55;;;1.52;;
76310;SDS011;65120;59.304;18.294;2023-05-14T10:12:27;3.17;;;1.50;;
76310;SDS011;65120;59.304;18.294;2023-05-14T10:14:58;4.80;;;2.10;;
76310;SDS011;65120;59.304;18.294;2023-05-14T10:17:30;5.28;;;1.73;;
76310;SDS011;65120;59.304;18.294;2023-05-14T10:19:57;3.05;;;1.92;;
76310;SDS011;65120;59.304;18.294;2023-05-14T10:22:29;3.33;;;0.88;;
76310;SDS011;65120;59.304;18.294;2023-05-14T10:24:59;2.17;;;1.30;;
76310;SDS011;65120;59.304;18.294;2023-05-14T10:27:28;3.00;;;0.70;;
76310;SDS011;65120;59.304;18.294;2023-05-14T10:29:55;1.27;;;1.05;;
76310;SDS011;65120;59.304;18.294;2023-05-14T10:32:23;2.63;;;0.80;;
76310;SDS011;65120;59.304;18.294;2023-05-14T10:34:51;2.10;;;0.52;;
76310;SDS011;65120;59.304;18.294;2023-05-14T10:37:19;2.75;;;1.00;;
76310;SDS011;65120;59.304;18.294;2023-05-14T10:39:48;0.63;;;0.60;;
76310;SDS011;65120;59.304;18.294;2023-05-14T10:42:17;1.35;;;0.75;;
76310;SDS011;65120;59.304;18.294;2023-05-14T10:44:53;3.33;;;0.70;;
76310;SDS011;65120;59.304;18.294;2023-05-14T10:47:22;0.60;;;0.50;;
76310;SDS011;65120;59.304;18.294;2023-05-14T10:49:51;1.17;;;0.60;;
76310;SDS011;65120;59.304;18.294;2023-05-14T10:52:19;3.90;;;0.60;;
76310;SDS011;65120;59.304;18.294;2023-05-14T10:54:50;1.25;;;0.60;;
76310;SDS011;65120;59.304;18.294;2023-05-14T10:57:19;3.80;;;0.60;;
76310;SDS011;65120;59.304;18.294;2023-05-14T10:59:47;2.15;;;0.60;;
76310;SDS011;65120;59.304;18.294;2023-05-14T11:02:21;0.73;;;0.45;;
76310;SDS011;65120;59.304;18.294;2023-05-14T11:04:54;1.10;;;0.50;;
76310;SDS011;65120;59.304;18.294;2023-05-14T11:07:24;4.82;;;0.70;;
76310;SDS011;65120;59.304;18.294;2023-05-14T11:09:56;3.38;;;0.50;;
76310;SDS011;65120;59.304;18.294;2023-05-14T11:12:26;6.70;;;0.70;;
76310;SDS011;65120;59.304;18.294;2023-05-14T11:14:53;2.85;;;0.52;;
76310;SDS011;65120;59.304;18.294;2023-05-14T11:17:24;3.97;;;0.60;;
76310;SDS011;65120;59.304;18.294;2023-05-14T11:19:51;1.05;;;0.50;;
76310;SDS011;65120;59.304;18.294;2023-05-14T11:22:19;3.95;;;0.60;;
76310;SDS011;65120;59.304;18.294;2023-05-14T11:24:46;2.35;;;0.60;;
76310;SDS011;65120;59.304;18.294;2023-05-14T11:27:13;6.15;;;0.60;;
76310;SDS011;65120;59.304;18.294;2023-05-14T11:29:42;3.47;;;0.50;;
76310;SDS011;65120;59.304;18.294;2023-05-14T11:32:10;1.33;;;0.40;;
76310;SDS011;65120;59.304;18.294;2023-05-14T11:34:39;6.40;;;1.88;;
76310;SDS011;65120;59.304;18.294;2023-05-14T11:37:06;2.90;;;0.70;;
76310;SDS011;65120;59.304;18.294;2023-05-14T11:39:34;1.90;;;0.60;;
76310;SDS011;65120;59.304;18.294;2023-05-14T11:42:02;5.28;;;0.70;;
76310;SDS011;65120;59.304;18.294;2023-05-14T11:44:31;5.07;;;0.60;;
76310;SDS011;65120;59.304;18.294;2023-05-14T11:46:58;1.75;;;0.70;;
76310;SDS011;65120;59.304;18.294;2023-05-14T11:49:25;3.15;;;0.65;;
76310;SDS011;65120;59.304;18.294;2023-05-14T11:51:58;2.28;;;0.73;;
76310;SDS011;65120;59.304;18.294;2023-05-14T11:54:26;2.25;;;0.70;;
76310;SDS011;65120;59.304;18.294;2023-05-14T11:56:53;0.85;;;0.60;;
76310;SDS011;65120;59.304;18.294;2023-05-14T11:59:21;4.97;;;1.60;;
76310;SDS011;65120;59.304;18.294;2023-05-14T12:01:49;1.00;;;0.40;;
76310;SDS011;65120;59.304;18.294;2023-05-14T12:04:17;1.10;;;0.70;;
76310;SDS011;65120;59.304;18.294;2023-05-14T12:06:46;2.97;;;0.50;;
76310;SDS011;65120;59.304;18.294;2023-05-14T12:09:16;1.70;;;0.60;;
76310;SDS011;65120;59.304;18.294;2023-05-14T12:11:43;2.35;;;0.60;;
76310;SDS011;65120;59.304;18.294;2023-05-14T12:14:11;1.55;;;0.60;;
76310;SDS011;65120;59.304;18.294;2023-05-14T12:16:43;2.80;;;0.60;;
76310;SDS011;65120;59.304;18.294;2023-05-14T12:19:12;2.90;;;0.85;;
76310;SDS011;65120;59.304;18.294;2023-05-14T12:21:41;4.07;;;0.60;;
76310;SDS011;65120;59.304;18.294;2023-05-14T12:24:09;5.40;;;1.40;;
76310;SDS011;65120;59.304;18.294;2023-05-14T12:26:38;1.40;;;0.60;;
76310;SDS011;65120;59.304;18.294;2023-05-14T12:29:05;4.97;;;0.63;;
76310;SDS011;65120;59.304;18.294;2023-05-14T12:31:32;9.45;;;1.95;;
76310;SDS011;65120;59.304;18.294;2023-05-14T12:34:00;2.92;;;0.47;;
76310;SDS011;65120;59.304;18.294;2023-05-14T12:36:28;2.22;;;0.60;;
76310;SDS011;65120;59.304;18.294;2023-05-14T12:38:57;4.20;;;0.40;;
76310;SDS011;65120;59.304;18.294;2023-05-14T12:41:25;1.55;;;0.73;;
76310;SDS011;65120;59.304;18.294;2023-05-14T12:43:54;3.83;;;0.60;;
76310;SDS011;65120;59.304;18.294;2023-05-14T12:46:21;0.95;;;0.60;;
76310;SDS011;65120;59.304;18.294;2023-05-14T12:48:48;4.20;;;0.90;;
76310;SDS011;65120;59.304;18.294;2023-05-14T12:51:14;1.10;;;0.98;;
76310;SDS011;65120;59.304;18.294;2023-05-14T12:53:41;1.20;;;0.90;;
76310;SDS011;65120;59.304;18.294;2023-05-14T12:56:08;5.50;;;0.80;;
76310;SDS011;65120;59.304;18.294;2023-05-14T12:58:35;1.58;;;0.60;;
76310;SDS011;65120;59.304;18.294;2023-05-14T13:01:04;5.13;;;0.55;;
76310;SDS011;65120;59.304;18.294;2023-05-14T13:03:31;3.92;;;0.60;;
76310;SDS011;65120;59.304;18.294;2023-05-14T13:05:58;5.05;;;0.50;;
76310;SDS011;65120;59.304;18.294;2023-05-14T13:08:25;3.72;;;0.73;;
76310;SDS011;65120;59.304;18.294;2023-05-14T13:10:52;2.65;;;0.57;;
76310;SDS011;65120;59.304;18.294;2023-05-14T13:13:20;1.70;;;0.60;;
76310;SDS011;65120;59.304;18.294;2023-05-14T13:15:47;5.70;;;0.50;;
76310;SDS011;65120;59.304;18.294;2023-05-14T13:18:16;5.47;;;0.70;;
76310;SDS011;65120;59.304;18.294;2023-05-14T13:20:43;3.20;;;0.60;;
76310;SDS011;65120;59.304;18.294;2023-05-14T13:23:11;1.85;;;0.50;;
76310;SDS011;65120;59.304;18.294;2023-05-14T13:25:38;7.25;;;0.73;;
76310;SDS011;65120;59.304;18.294;2023-05-14T13:28:05;4.35;;;0.50;;
76310;SDS011;65120;59.304;18.294;2023-05-14T13:30:32;4.72;;;0.70;;
76310;SDS011;65120;59.304;18.294;2023-05-14T13:32:58;3.15;;;0.50;;
76310;SDS011;65120;59.304;18.294;2023-05-14T13:35:27;1.55;;;0.50;;
76310;SDS011;65120;59.304;18.294;2023-05-14T13:37:53;7.47;;;0.60;;
76310;SDS011;65120;59.304;18.294;2023-05-14T13:40:20;2.55;;;0.60;;
76310;SDS011;65120;59.304;18.294;2023-05-14T13:42:47;1.80;;;0.68;;
76310;SDS011;65120;59.304;18.294;2023-05-14T13:45:14;2.20;;;0.60;;
76310;SDS011;65120;59.304;18.294;2023-05-14T13:47:41;1.77;;;0.80;;
76310;SDS011;65120;59.304;18.294;2023-05-14T13:50:08;3.55;;;0.70;;
76310;SDS011;65120;59.304;18.294;2023-05-14T13:52:37;1.65;;;0.55;;
76310;SDS011;65120;59.304;18.294;2023-05-14T13:55:04;1.77;;;0.68;;
76310;SDS011;65120;59.304;18.294;2023-05-14T13:57:32;4.15;;;1.30;;
76310;SDS011;65120;59.304;18.294;2023-05-14T13:59:59;2.97;;;0.57;;
76310;SDS011;65120;59.304;18.294;2023-05-14T14:02:26;1.83;;;0.60;;
76310;SDS011;65120;59.304;18.294;2023-05-14T14:04:53;3.55;;;0.60;;
76310;SDS011;65120;59.304;18.294;2023-05-14T14:07:19;1.98;;;0.60;;
76310;SDS011;65120;59.304;18.294;2023-05-14T14:09:48;5.97;;;0.60;;
76310;SDS011;65120;59.304;18.294;2023-05-14T14:12:14;3.42;;;0.52;;
76310;SDS011;65120;59.304;18.294;2023-05-14T14:14:41;3.20;;;0.60;;
76310;SDS011;65120;59.304;18.294;2023-05-14T14:17:08;1.92;;;0.60;;
76310;SDS011;65120;59.304;18.294;2023-05-14T14:19:35;6.63;;;1.25;;
76310;SDS011;65120;59.304;18.294;2023-05-14T14:22:02;2.65;;;0.60;;
76310;SDS011;65120;59.304;18.294;2023-05-14T14:24:29;3.63;;;0.70;;
76310;SDS011;65120;59.304;18.294;2023-05-14T14:26:57;2.67;;;0.50;;
76310;SDS011;65120;59.304;18.294;2023-05-14T14:29:26;4.30;;;0.65;;
76310;SDS011;65120;59.304;18.294;2023-05-14T14:31:55;4.60;;;0.65;;
76310;SDS011;65120;59.304;18.294;2023-05-14T14:34:22;3.10;;;0.70;;
76310;SDS011;65120;59.304;18.294;2023-05-14T14:36:48;3.47;;;0.90;;